Time;durP1;ratioP1;P1;durP2;ratioP2;P2;SDS_P1;SDS_P2;PMS_P1;PMS_P2;Temp;Humidity;BMP_temperature;BMP_pressure;BME280_temperature;BME280_humidity;BME280_pressure;Samples;Min_cycle;Max_cycle;Signal;HPM_P1;HPM_P2
2021/05/26 00:01:59;;;;;;;;;;;;;;;22.02;47.15;100841.89;1757156;81;20222;-78
2021/05/26 00:04:26;;;;;;;;;;;;;;;22.01;47.11;100836.14;1757256;81;20192;-78
2021/05/26 00:06:53;;;;;;;;;;;;;;;22.03;47.03;100830.77;1755917;81;20553;-77
2021/05/26 00:09:18;;;;;;;;;;;;;;;22.01;47.11;100830.69;1755956;81;20220;-78
2021/05/26 00:11:45;;;;;;;;;;;;;;;22.04;46.95;100826.98;1754946;81;20552;-77
2021/05/26 00:14:12;;;;;;;;;;;;;;;22.01;46.97;100827.95;1755908;81;20278;-76
2021/05/26 00:16:38;;;;;;;;;;;;;;;22.00;46.92;100826.30;1756915;81;20379;-78
2021/05/26 00:19:07;;;;;;;;;;;;;;;21.97;47.02;100826.73;1757168;81;20542;-76
2021/05/26 00:21:35;;;;;;;;;;;;;;;21.96;47.11;100826.44;1756578;81;20243;-77
2021/05/26 00:24:01;;;;;;;;;;;;;;;21.97;47.18;100833.02;1757002;81;20195;-77
2021/05/26 00:26:27;;;;;;;;;;;;;;;22.09;47.07;100827.67;1757423;81;20662;-77
2021/05/26 00:28:54;;;;;;;;;;;;;;;22.11;47.01;100827.44;1757402;81;20211;-78
2021/05/26 00:31:24;;;;;;;;;;;;;;;21.96;47.43;100832.72;1756727;81;20513;-78
2021/05/26 00:33:50;;;;;;;;;;;;;;;21.92;47.33;100827.94;1757447;81;20220;-78
2021/05/26 00:36:16;;;;;;;;;;;;;;;21.88;47.46;100833.00;1757373;81;20176;-78
2021/05/26 00:38:44;;;;;;;;;;;;;;;21.86;47.56;100825.58;1756970;81;20156;-78
2021/05/26 00:41:10;;;;;;;;;;;;;;;21.90;47.85;100837.72;1757031;81;20164;-78
2021/05/26 00:43:36;;;;;;;;;;;;;;;21.92;47.97;100834.75;1757475;81;20584;-79
2021/05/26 00:46:02;;;;;;;;;;;;;;;21.94;48.07;100834.02;1758393;81;20160;-79
2021/05/26 00:48:30;;;;;;;;;;;;;;;21.94;48.03;100834.02;1758853;81;20196;-79
2021/05/26 00:50:56;;;;;;;;;;;;;;;21.94;48.00;100833.48;1758338;81;20136;-80
2021/05/26 00:53:24;;;;;;;;;;;;;;;21.94;47.81;100845.76;1758603;81;20534;-78
2021/05/26 00:55:51;;;;;;;;;;;;;;;21.94;47.70;100841.67;1758006;81;20204;-78
2021/05/26 00:58:17;;;;;;;;;;;;;;;21.94;47.62;100842.20;1758166;81;20164;-80
2021/05/26 01:00:44;;;;;;;;;;;;;;;21.96;47.51;100840.07;1737205;81;20649;-77
2021/05/26 01:03:12;;;;;;;;;;;;;;;21.95;47.41;100845.23;1757182;81;20165;-78
2021/05/26 01:05:40;;;;;;;;;;;;;;;21.89;47.57;100843.37;1757919;81;20242;-78
2021/05/26 01:08:06;;;;;;;;;;;;;;;21.93;47.40;100847.33;1758463;81;20160;-79
2021/05/26 01:10:34;;;;;;;;;;;;;;;21.86;47.59;100847.40;1758508;81;20517;-79
2021/05/26 01:13:02;;;;;;;;;;;;;;;21.85;47.65;100840.81;1757128;81;20537;-77
2021/05/26 01:15:29;;;;;;;;;;;;;;;21.93;47.47;100848.69;1757556;81;20204;-78
2021/05/26 01:17:55;;;;;;;;;;;;;;;21.88;47.58;100847.16;1757824;81;20228;-79
2021/05/26 01:20:26;;;;;;;;;;;;;;;21.84;47.67;100841.31;1756089;81;20132;-79
2021/05/26 01:22:52;;;;;;;;;;;;;;;21.83;47.68;100845.11;1757398;81;20200;-80
2021/05/26 01:25:19;;;;;;;;;;;;;;;21.81;47.70;100845.88;1757643;81;20217;-79
2021/05/26 01:27:46;;;;;;;;;;;;;;;21.88;47.57;100852.62;1757405;81;20140;-78
2021/05/26 01:30:14;;;;;;;;;;;;;;;22.28;46.78;100853.95;1757416;81;20251;-78
2021/05/26 01:32:44;;;;;;;;;;;;;;;22.38;46.57;100851.22;1757182;81;20554;-78
2021/05/26 01:35:12;;;;;;;;;;;;;;;22.41;46.48;100854.88;1756633;81;20160;-77
2021/05/26 01:37:43;;;;;;;;;;;;;;;22.44;46.35;100853.90;1756831;81;20565;-77
2021/05/26 01:40:10;;;;;;;;;;;;;;;22.47;46.30;100848.50;1757134;81;20164;-77
2021/05/26 01:42:36;;;;;;;;;;;;;;;22.47;46.26;100845.23;1755924;81;20517;-78
2021/05/26 01:45:05;;;;;;;;;;;;;;;22.48;46.21;100848.80;1735739;81;20224;-77
2021/05/26 01:47:31;;;;;;;;;;;;;;;22.07;47.04;100851.59;1756821;81;20219;-77
2021/05/26 01:49:57;;;;;;;;;;;;;;;21.94;47.50;100855.30;1756592;81;20188;-78
2021/05/26 01:52:24;;;;;;;;;;;;;;;21.89;47.69;100850.19;1756729;81;20141;-78
2021/05/26 01:54:50;;;;;;;;;;;;;;;21.91;47.64;100857.11;1756726;81;20181;-77
2021/05/26 01:57:16;;;;;;;;;;;;;;;21.86;47.75;100856.11;1757104;81;20216;-78
2021/05/26 01:59:42;;;;;;;;;;;;;;;21.84;47.77;100852.22;1757127;80;20190;-79
2021/05/26 02:02:10;;;;;;;;;;;;;;;21.82;47.92;100854.35;1757264;81;20116;-80
2021/05/26 02:04:37;;;;;;;;;;;;;;;21.91;47.82;100849.45;1758195;81;20129;-80
2021/05/26 02:07:11;;;;;;;;;;;;;;;21.78;48.01;100853.95;1757400;81;20152;-80
2021/05/26 02:09:38;;;;;;;;;;;;;;;21.76;48.01;100857.45;1757587;81;20160;-77
2021/05/26 02:12:24;;;;;;;;;;;;;;;21.74;48.02;100851.36;1757735;81;20184;-77
2021/05/26 02:14:54;;;;;;;;;;;;;;;21.76;48.03;100854.72;1757508;81;20216;-80
2021/05/26 02:17:20;;;;;;;;;;;;;;;21.77;48.05;100855.55;1759056;81;20164;-79
2021/05/26 02:19:49;;;;;;;;;;;;;;;21.84;48.02;100852.22;1758782;81;20149;-78
2021/05/26 02:22:16;;;;;;;;;;;;;;;21.82;48.11;100851.63;1756671;81;20247;-79
2021/05/26 02:24:42;;;;;;;;;;;;;;;21.83;48.12;100856.02;1756871;81;20188;-78
2021/05/26 02:27:08;;;;;;;;;;;;;;;21.86;48.13;100853.38;1756340;81;20209;-78
2021/05/26 02:29:35;;;;;;;;;;;;;;;21.87;48.10;100856.41;1757485;81;20256;-78
2021/05/26 02:32:02;;;;;;;;;;;;;;;21.89;48.03;100856.51;1757322;81;20168;-78
2021/05/26 02:34:31;;;;;;;;;;;;;;;21.89;47.99;100860.60;1750297;81;20228;-79
2021/05/26 02:36:57;;;;;;;;;;;;;;;21.91;48.02;100852.19;1743771;81;20144;-80
2021/05/26 02:39:23;;;;;;;;;;;;;;;21.91;48.04;100859.00;1744019;81;20572;-79
2021/05/26 02:41:50;;;;;;;;;;;;;;;21.91;48.04;100861.73;1743664;82;20220;-79
2021/05/26 02:44:17;;;;;;;;;;;;;;;21.92;48.07;100859.30;1752092;80;20251;-78
2021/05/26 02:46:44;;;;;;;;;;;;;;;21.91;48.08;100863.09;1756748;80;20538;-79
2021/05/26 02:49:12;;;;;;;;;;;;;;;21.92;48.09;100864.75;1757084;80;20294;-79
2021/05/26 02:51:40;;;;;;;;;;;;;;;21.92;48.07;100864.22;1735477;81;20255;-79
2021/05/26 02:54:06;;;;;;;;;;;;;;;21.92;48.05;100866.12;1757596;81;20255;-79
2021/05/26 02:56:34;;;;;;;;;;;;;;;21.93;48.04;100862.33;1758036;80;20251;-80
2021/05/26 02:59:13;;;;;;;;;;;;;;;21.96;48.12;100861.36;1760524;81;20172;-80
2021/05/26 03:01:53;;;;;;;;;;;;;;;21.98;48.07;100870.17;1700827;81;20216;-79
2021/05/26 03:04:24;;;;;;;;;;;;;;;22.00;48.09;100865.31;1757947;81;20201;-79
2021/05/26 03:06:51;;;;;;;;;;;;;;;22.02;48.05;100871.89;1758398;80;20236;-79
2021/05/26 03:09:18;;;;;;;;;;;;;;;22.06;48.04;100873.12;1736881;81;20144;-80
2021/05/26 03:11:46;;;;;;;;;;;;;;;22.10;48.01;100878.44;1759117;80;20291;-80
2021/05/26 03:14:15;;;;;;;;;;;;;;;22.15;47.96;100875.07;1758020;81;20223;-80
2021/05/26 03:16:44;;;;;;;;;;;;;;;22.17;47.97;100866.98;1758742;80;20164;-79
2021/05/26 03:19:12;;;;;;;;;;;;;;;22.20;47.90;100869.23;1759333;81;20160;-79
2021/05/26 03:21:40;;;;;;;;;;;;;;;22.22;47.85;100868.50;1759329;80;20161;-79
2021/05/26 03:24:21;;;;;;;;;;;;;;;22.27;47.73;100869.19;1711692;81;20244;-79
2021/05/26 03:26:47;;;;;;;;;;;;;;;22.27;47.77;100874.65;1759509;81;20160;-79
2021/05/26 03:29:13;;;;;;;;;;;;;;;22.26;47.85;100876.55;1758279;81;20255;-77
2021/05/26 03:31:41;;;;;;;;;;;;;;;22.27;47.94;100876.02;1758557;80;20248;-78
2021/05/26 03:34:08;;;;;;;;;;;;;;;22.22;47.92;100876.69;1759358;80;20156;-79
2021/05/26 03:36:37;;;;;;;;;;;;;;;22.12;48.06;100881.83;1736408;81;20505;-78
2021/05/26 03:39:05;;;;;;;;;;;;;;;22.09;48.19;100882.77;1758036;80;20236;-79
2021/05/26 03:41:32;;;;;;;;;;;;;;;22.07;48.26;100884.33;1736208;81;20248;-77
2021/05/26 03:43:59;;;;;;;;;;;;;;;22.06;48.21;100888.13;1757123;80;20648;-78
2021/05/26 03:46:25;;;;;;;;;;;;;;;22.10;48.11;100896.17;1756571;80;20232;-79
2021/05/26 03:48:54;;;;;;;;;;;;;;;22.06;48.10;100890.85;1735868;81;20768;-78
2021/05/26 03:51:20;;;;;;;;;;;;;;;22.06;48.11;100890.85;1736066;82;20332;-79
2021/05/26 03:53:48;;;;;;;;;;;;;;;22.04;48.20;100890.25;1737608;82;20188;-80
2021/05/26 03:56:16;;;;;;;;;;;;;;;22.51;47.28;100892.03;1697095;83;20242;-79
2021/05/26 03:58:47;;;;;;;;;;;;;;;22.59;47.12;100886.81;1721295;82;20158;-80
2021/05/26 04:01:18;;;;;;;;;;;;;;;22.16;48.00;100891.20;1743416;82;20499;-78
2021/05/26 04:03:45;;;;;;;;;;;;;;;22.05;48.41;100900.11;1744728;82;20205;-79
2021/05/26 04:06:13;;;;;;;;;;;;;;;22.03;48.51;100898.14;1746252;81;20210;-78
2021/05/26 04:08:39;;;;;;;;;;;;;;;22.05;48.54;100898.73;1743112;82;20257;-77
2021/05/26 04:11:08;;;;;;;;;;;;;;;22.11;48.52;100899.73;1743554;82;20261;-79
2021/05/26 04:13:37;;;;;;;;;;;;;;;22.17;48.60;100903.81;1705956;82;20248;-79
2021/05/26 04:16:19;;;;;;;;;;;;;;;22.26;48.69;100903.83;1739008;82;20253;-79
2021/05/26 04:18:48;;;;;;;;;;;;;;;22.35;48.77;100903.55;1741792;81;20234;-78
2021/05/26 04:21:14;;;;;;;;;;;;;;;22.42;48.67;100904.30;1727830;82;20247;-80
2021/05/26 04:23:40;;;;;;;;;;;;;;;22.49;48.47;100902.36;1695818;82;20320;-79
2021/05/26 04:26:07;;;;;;;;;;;;;;;22.52;48.39;100898.62;1742865;82;20591;-79
2021/05/26 04:28:33;;;;;;;;;;;;;;;22.60;48.33;100904.32;1743983;82;20350;-78
2021/05/26 04:31:00;;;;;;;;;;;;;;;22.67;48.43;100901.00;1743604;82;20221;-79
2021/05/26 04:33:28;;;;;;;;;;;;;;;22.73;48.23;100901.98;1744206;82;20237;-78
2021/05/26 04:35:54;;;;;;;;;;;;;;;22.78;47.90;100907.59;1741718;82;20284;-78
2021/05/26 04:38:20;;;;;;;;;;;;;;;22.82;48.01;100892.42;1743105;82;20205;-78
2021/05/26 04:40:47;;;;;;;;;;;;;;;22.89;47.86;100903.25;1739122;80;20257;-78
2021/05/26 04:43:13;;;;;;;;;;;;;;;22.95;47.83;100901.86;1741248;82;20275;-79
2021/05/26 04:45:41;;;;;;;;;;;;;;;23.01;47.78;100906.39;1740879;81;20262;-78
2021/05/26 04:48:07;;;;;;;;;;;;;;;23.10;47.90;100902.81;1719469;82;20209;-79
2021/05/26 04:50:33;;;;;;;;;;;;;;;23.18;47.71;100911.23;1739123;81;20182;-79
2021/05/26 04:52:59;;;;;;;;;;;;;;;23.25;47.58;100912.80;1739666;82;20730;-78
2021/05/26 04:55:26;;;;;;;;;;;;;;;23.34;47.63;100909.75;1742580;81;20273;-77
2021/05/26 04:58:00;;;;;;;;;;;;;;;23.41;47.81;100911.33;1740599;81;20305;-78
2021/05/26 05:00:27;;;;;;;;;;;;;;;23.48;48.03;100913.96;1740120;81;20372;-78
2021/05/26 05:02:53;;;;;;;;;;;;;;;23.53;47.94;100917.69;1733840;82;20249;-78
2021/05/26 05:05:20;;;;;;;;;;;;;;;23.55;47.72;100917.45;1734785;82;20162;-78
2021/05/26 05:07:48;;;;;;;;;;;;;;;23.56;47.72;100906.80;1731993;81;20258;-77
2021/05/26 05:10:14;;;;;;;;;;;;;;;23.60;47.73;100909.38;1729926;80;21123;-78
2021/05/26 05:12:40;;;;;;;;;;;;;;;23.63;47.13;100910.28;1734366;80;20773;-77
2021/05/26 05:15:08;;;;;;;;;;;;;;;23.64;47.43;100920.18;1735299;81;20241;-77
2021/05/26 05:17:34;;;;;;;;;;;;;;;23.66;47.98;100928.97;1734304;81;20257;-78
2021/05/26 05:20:03;;;;;;;;;;;;;;;23.69;48.25;100930.42;1732278;80;20328;-78
2021/05/26 05:22:32;;;;;;;;;;;;;;;23.76;48.06;100930.63;1738168;81;20237;-79
2021/05/26 05:24:59;;;;;;;;;;;;;;;23.79;47.60;100929.31;1737907;81;20175;-79
2021/05/26 05:27:25;;;;;;;;;;;;;;;23.83;47.45;100928.31;1738504;81;21220;-78
2021/05/26 05:29:51;;;;;;;;;;;;;;;23.86;47.70;100928.69;1737311;81;20165;-78
2021/05/26 05:32:17;;;;;;;;;;;;;;;23.93;47.74;100940.88;1735143;81;20295;-79
2021/05/26 05:34:44;;;;;;;;;;;;;;;24.03;47.66;100942.53;1769497;80;20219;-79
2021/05/26 05:37:12;;;;;;;;;;;;;;;24.10;47.47;100937.77;1767824;79;20500;-79
2021/05/26 05:39:38;;;;;;;;;;;;;;;24.17;47.03;100948.08;1770426;79;20475;-80
2021/05/26 05:42:05;;;;;;;;;;;;;;;24.24;47.34;100945.22;1772539;80;20309;-79
2021/05/26 05:44:32;;;;;;;;;;;;;;;24.30;47.15;100946.48;1764991;80;20283;-79
2021/05/26 05:46:58;;;;;;;;;;;;;;;24.36;46.99;100944.70;1767433;80;20159;-79
2021/05/26 05:49:24;;;;;;;;;;;;;;;24.54;46.75;100942.41;1770497;79;20785;-79
2021/05/26 05:51:50;;;;;;;;;;;;;;;24.61;46.37;100934.06;1767674;79;20151;-80
2021/05/26 05:54:16;;;;;;;;;;;;;;;24.64;46.62;100928.94;1768659;79;20185;-79
2021/05/26 05:56:43;;;;;;;;;;;;;;;24.95;46.08;100924.97;1765732;79;20240;-80
2021/05/26 05:59:09;;;;;;;;;;;;;;;24.85;46.02;100927.50;1773660;79;20187;-80
2021/05/26 06:01:35;;;;;;;;;;;;;;;24.92;45.92;100917.75;1756768;79;20314;-78
2021/05/26 06:04:01;;;;;;;;;;;;;;;25.00;46.09;100920.12;1706334;82;20441;-79
2021/05/26 06:06:34;;;;;;;;;;;;;;;25.15;46.05;100925.11;1733122;80;21142;-78
2021/05/26 06:09:00;;;;;;;;;;;;;;;25.33;45.70;100926.84;1704479;80;20276;-77
2021/05/26 06:11:27;;;;;;;;;;;;;;;25.50;44.35;100919.49;1726126;81;20307;-78
2021/05/26 06:13:56;;;;;;;;;;;;;;;25.66;44.36;100916.48;1702778;81;20261;-77
2021/05/26 06:16:23;;;;;;;;;;;;;;;25.79;43.38;100914.28;1705243;82;20360;-79
2021/05/26 06:18:49;;;;;;;;;;;;;;;25.97;42.65;100909.64;1706702;81;20336;-78
2021/05/26 06:21:17;;;;;;;;;;;;;;;26.17;41.90;100919.59;1735262;81;20884;-79
2021/05/26 06:23:44;;;;;;;;;;;;;;;26.34;40.80;100916.81;1713927;81;20595;-78
2021/05/26 06:26:22;;;;;;;;;;;;;;;26.48;39.81;100914.06;1736387;81;20166;-79
2021/05/26 06:28:49;;;;;;;;;;;;;;;26.63;39.89;100915.36;1729836;81;20743;-79
2021/05/26 06:31:15;;;;;;;;;;;;;;;26.77;40.00;100915.27;1732079;81;20180;-78
2021/05/26 06:33:43;;;;;;;;;;;;;;;26.92;39.94;100911.87;1733531;80;20146;-78
2021/05/26 06:36:11;;;;;;;;;;;;;;;27.08;39.71;100913.74;1732386;81;20269;-79
2021/05/26 06:38:46;;;;;;;;;;;;;;;27.24;39.70;100907.34;1710868;82;20173;-79
2021/05/26 06:41:12;;;;;;;;;;;;;;;27.41;39.16;100917.44;1729249;81;20184;-78
2021/05/26 06:43:39;;;;;;;;;;;;;;;27.51;38.59;100908.73;1730052;81;20206;-79
2021/05/26 06:46:06;;;;;;;;;;;;;;;27.63;40.03;100912.72;1709511;80;20301;-79
2021/05/26 06:48:32;;;;;;;;;;;;;;;27.81;40.63;100915.13;1707515;81;20209;-79
2021/05/26 06:50:59;;;;;;;;;;;;;;;28.03;40.60;100923.84;1732215;81;20576;-77
2021/05/26 06:53:25;;;;;;;;;;;;;;;28.60;38.72;100910.75;1731920;81;20297;-79
2021/05/26 06:55:53;;;;;;;;;;;;;;;28.91;38.13;100914.50;1731579;80;20222;-78
2021/05/26 06:58:19;;;;;;;;;;;;;;;29.10;38.89;100916.25;1730242;81;20290;-78
2021/05/26 07:00:52;;;;;;;;;;;;;;;29.24;39.05;100910.50;1727761;81;20265;-78
2021/05/26 07:03:24;;;;;;;;;;;;;;;29.43;38.64;100917.72;1703923;80;20739;-78
2021/05/26 07:05:53;;;;;;;;;;;;;;;29.12;39.37;100914.07;1728222;81;21192;-78
2021/05/26 07:08:21;;;;;;;;;;;;;;;29.24;39.59;100910.50;1682601;82;20269;-78
2021/05/26 07:10:48;;;;;;;;;;;;;;;29.42;39.12;100924.34;1730013;80;20226;-79
2021/05/26 07:13:17;;;;;;;;;;;;;;;29.57;38.69;100919.46;1731433;81;20280;-78
2021/05/26 07:18:33;;;;;;;;;;;;;;;29.81;37.90;100918.37;1680488;81;20316;-78
2021/05/26 07:21:00;;;;;;;;;;;;;;;29.93;38.47;100916.70;1725736;81;20355;-78
2021/05/26 07:23:32;;;;;;;;;;;;;;;29.97;38.42;100913.67;1727050;81;20325;-77
2021/05/26 07:25:58;;;;;;;;;;;;;;;29.95;37.95;100911.20;1723615;80;20246;-78
2021/05/26 07:28:25;;;;;;;;;;;;;;;29.91;38.08;100914.23;1726589;81;20277;-77
2021/05/26 07:30:52;;;;;;;;;;;;;;;29.85;37.59;100908.44;1722410;80;20721;-78
2021/05/26 07:33:20;;;;;;;;;;;;;;;29.76;35.39;100917.00;1724642;81;20327;-78
2021/05/26 07:35:52;;;;;;;;;;;;;;;29.62;36.07;100906.22;1700651;82;20230;-79
2021/05/26 07:38:26;;;;;;;;;;;;;;;29.51;35.92;100921.33;1723709;81;20365;-79
2021/05/26 07:40:58;;;;;;;;;;;;;;;29.47;35.09;100919.39;1727231;81;20238;-79
2021/05/26 07:43:33;;;;;;;;;;;;;;;29.36;34.90;100914.96;1726564;81;20290;-80
2021/05/26 07:46:01;;;;;;;;;;;;;;;29.30;36.34;100916.33;1730853;79;20333;-78
2021/05/26 07:48:27;;;;;;;;;;;;;;;29.38;37.72;100916.88;1729174;81;20266;-78
2021/05/26 07:50:54;;;;;;;;;;;;;;;29.45;37.23;100923.81;1729121;81;20320;-79
2021/05/26 07:53:20;;;;;;;;;;;;;;;29.44;36.02;100915.81;1730888;81;20273;-78
2021/05/26 07:55:49;;;;;;;;;;;;;;;29.37;35.26;100920.20;1738640;80;20262;-78
2021/05/26 07:58:15;;;;;;;;;;;;;;;29.37;36.92;100911.09;1747350;79;20274;-78
2021/05/26 08:00:41;;;;;;;;;;;;;;;29.45;38.31;100922.98;1745855;80;20191;-79
2021/05/26 08:03:06;;;;;;;;;;;;;;;29.50;38.13;100922.44;1744619;80;20223;-78
2021/05/26 08:05:32;;;;;;;;;;;;;;;29.49;38.23;100919.96;1744600;80;20172;-78
2021/05/26 08:07:59;;;;;;;;;;;;;;;29.44;38.36;100921.34;1746834;80;20275;-77
2021/05/26 08:10:26;;;;;;;;;;;;;;;29.37;38.48;100929.86;1746512;79;20924;-78
2021/05/26 08:12:53;;;;;;;;;;;;;;;29.28;38.60;100919.07;1725113;81;20679;-79
2021/05/26 08:15:20;;;;;;;;;;;;;;;29.24;38.37;100927.61;1711823;81;20338;-79
2021/05/26 08:17:45;;;;;;;;;;;;;;;29.23;38.14;100911.61;1744318;79;20185;-78
2021/05/26 08:20:12;;;;;;;;;;;;;;;29.24;35.54;100910.50;1758215;79;20203;-78
2021/05/26 08:22:41;;;;;;;;;;;;;;;29.22;35.70;100914.09;1766140;78;20304;-78
2021/05/26 08:25:09;;;;;;;;;;;;;;;29.27;36.04;100916.86;1772943;78;20272;-79
2021/05/26 08:30:16;;;;;;;;;;;;;;;29.33;35.39;100919.91;1696739;78;20236;-80
2021/05/26 08:32:42;;;;;;;;;;;;;;;29.30;35.25;100923.23;1761595;78;20273;-80
2021/05/26 08:35:10;;;;;;;;;;;;;;;29.31;35.50;100920.74;1767452;78;20754;-80
2021/05/26 08:37:41;;;;;;;;;;;;;;;29.40;35.94;100923.80;1743867;78;20269;-80
2021/05/26 08:40:09;;;;;;;;;;;;;;;29.50;36.06;100927.13;1763834;78;20706;-80
2021/05/26 08:42:36;;;;;;;;;;;;;;;29.57;35.78;100930.50;1766147;78;20230;-79
2021/05/26 08:47:51;;;;;;;;;;;;;;;29.63;35.33;100920.29;1669305;78;20202;-78
2021/05/26 08:50:20;;;;;;;;;;;;;;;29.65;35.19;100921.66;1765320;78;20301;-79
2021/05/26 08:52:49;;;;;;;;;;;;;;;29.66;35.44;100912.82;1766860;78;20670;-80
2021/05/26 08:55:18;;;;;;;;;;;;;;;29.70;35.47;100916.69;1762508;79;20270;-79
2021/05/26 08:57:45;;;;;;;;;;;;;;;29.74;35.54;100911.73;1762874;78;20866;-80
2021/05/26 09:00:12;;;;;;;;;;;;;;;29.81;35.22;100916.44;1763372;78;20236;-80
2021/05/26 09:02:38;;;;;;;;;;;;;;;29.85;34.97;100918.66;1762322;79;20268;-79
2021/05/26 09:05:09;;;;;;;;;;;;;;;29.83;34.48;100916.16;1758893;78;20277;-78
2021/05/26 09:10:26;;;;;;;;;;;;;;;30.17;34.12;100908.73;1764504;78;20242;-80
2021/05/26 09:12:57;;;;;;;;;;;;;;;29.90;34.51;100900.70;1763703;79;20289;-79
2021/05/26 09:15:21;;;;;;;;;;;;;;;30.27;33.76;100909.54;1759973;79;20256;-79
2021/05/26 09:17:53;;;;;;;;;;;;;;;29.92;34.61;100902.06;1758174;79;20606;-78
2021/05/26 09:20:31;;;;;;;;;;;;;;;29.89;34.65;100901.78;1740807;79;20281;-78
2021/05/26 09:23:19;;;;;;;;;;;;;;;29.90;35.13;100903.47;1758567;78;20269;-78
2021/05/26 09:25:51;;;;;;;;;;;;;;;29.90;34.54;100900.70;1691218;82;20279;-79
2021/05/26 09:28:29;;;;;;;;;;;;;;;29.88;33.73;100902.90;1675895;83;20336;-80
2021/05/26 09:31:07;;;;;;;;;;;;;;;29.81;34.36;100901.25;1741778;80;20310;-79
2021/05/26 09:36:23;;;;;;;;;;;;;;;29.62;33.59;100901.52;1737122;80;20239;-79
2021/05/26 09:39:00;;;;;;;;;;;;;;;29.53;33.38;100916.38;1745819;80;20206;-80
2021/05/26 09:41:32;;;;;;;;;;;;;;;29.39;32.91;100911.64;1741604;80;20612;-80
2021/05/26 09:44:09;;;;;;;;;;;;;;;29.24;33.29;100902.22;1742260;80;20223;-79
2021/05/26 09:46:33;;;;;;;;;;;;;;;29.19;34.28;100904.97;1726907;80;20293;-78
2021/05/26 09:49:20;;;;;;;;;;;;;;;29.17;34.71;100898.91;1740580;80;20328;-80
2021/05/26 09:51:59;;;;;;;;;;;;;;;29.16;34.95;100900.54;1740895;80;20207;-80
2021/05/26 09:54:32;;;;;;;;;;;;;;;29.14;34.99;100898.62;1738049;80;20267;-78
2021/05/26 09:57:06;;;;;;;;;;;;;;;29.14;35.17;100889.79;1742407;80;20291;-78
2021/05/26 09:59:33;;;;;;;;;;;;;;;29.15;35.07;100885.92;1740223;80;20217;-77
2021/05/26 10:01:59;;;;;;;;;;;;;;;29.15;34.58;100886.47;1737632;80;20259;-78
2021/05/26 10:04:25;;;;;;;;;;;;;;;29.14;35.06;100890.34;1737748;80;20651;-78
2021/05/26 10:07:11;;;;;;;;;;;;;;;29.14;35.34;100896.69;1739003;80;20261;-78
2021/05/26 10:09:38;;;;;;;;;;;;;;;29.15;35.48;100897.51;1746638;80;20234;-78
2021/05/26 10:12:10;;;;;;;;;;;;;;;29.16;35.33;100899.16;1738987;80;20239;-79
2021/05/26 10:14:41;;;;;;;;;;;;;;;29.12;35.06;100890.63;1711531;80;20238;-80
2021/05/26 10:17:10;;;;;;;;;;;;;;;29.10;35.14;100892.80;1739733;80;20250;-79
2021/05/26 10:19:37;;;;;;;;;;;;;;;29.09;34.61;100902.19;1740793;80;20317;-78
2021/05/26 10:22:04;;;;;;;;;;;;;;;29.04;34.36;100895.28;1740443;80;20251;-77
2021/05/26 10:24:32;;;;;;;;;;;;;;;29.01;34.34;100888.91;1739724;80;20286;-78
2021/05/26 10:27:00;;;;;;;;;;;;;;;28.99;34.47;100884.23;1744716;80;21002;-78
2021/05/26 10:29:33;;;;;;;;;;;;;;;28.98;33.89;100882.58;1737517;80;20243;-79
2021/05/26 10:32:06;;;;;;;;;;;;;;;28.94;34.42;100874.53;1740730;80;20237;-77
2021/05/26 10:34:51;;;;;;;;;;;;;;;28.92;34.33;100882.23;1742356;80;20816;-78
2021/05/26 10:37:27;;;;;;;;;;;;;;;28.89;35.30;100885.52;1720009;80;20243;-78
2021/05/26 10:39:55;;;;;;;;;;;;;;;28.84;37.21;100884.95;1741848;80;20231;-79
2021/05/26 10:42:32;;;;;;;;;;;;;;;28.76;37.57;100886.31;1742538;80;20195;-80
2021/05/26 10:45:09;;;;;;;;;;;;;;;28.70;38.10;100875.52;1744645;80;20249;-80
2021/05/26 10:47:42;;;;;;;;;;;;;;;28.67;38.24;100873.32;1741673;80;20198;-80
2021/05/26 10:50:14;;;;;;;;;;;;;;;28.60;38.21;100873.55;1735286;80;21481;-80
2021/05/26 10:52:59;;;;;;;;;;;;;;;28.54;38.29;100873.25;1712748;80;20867;-79
2021/05/26 10:55:49;;;;;;;;;;;;;;;28.47;37.63;100878.16;1709686;80;20266;-80
2021/05/26 10:58:22;;;;;;;;;;;;;;;28.41;38.06;100876.48;1740245;80;20227;-80
2021/05/26 11:01:09;;;;;;;;;;;;;;;28.40;38.27;100872.08;1736740;80;20292;-80
2021/05/26 11:03:41;;;;;;;;;;;;;;;28.39;39.16;100875.90;1736757;80;20276;-81
2021/05/26 11:06:34;;;;;;;;;;;;;;;28.32;39.43;100865.09;1741663;80;20657;-78
2021/05/26 11:12:26;;;;;;;;;;;;;;;28.17;40.03;100859.50;1680679;82;20253;-81
2021/05/26 11:15:16;;;;;;;;;;;;;;;28.15;40.49;100862.50;1605572;85;20373;-79
2021/05/26 11:18:29;;;;;;;;;;;;;;;28.17;40.58;100861.70;1649474;85;20274;-78
2021/05/26 11:21:00;;;;;;;;;;;;;;;28.20;40.49;100854.27;1650185;84;20475;-79
2021/05/26 11:23:26;;;;;;;;;;;;;;;28.23;38.82;100856.50;1668162;83;20271;-77
2021/05/26 11:25:56;;;;;;;;;;;;;;;28.22;39.18;100860.36;1680970;83;20797;-78
2021/05/26 11:28:31;;;;;;;;;;;;;;;28.20;39.67;100862.53;1682356;82;20259;-80
2021/05/26 11:31:06;;;;;;;;;;;;;;;28.13;40.05;100858.38;1692712;82;20281;-80
2021/05/26 11:33:34;;;;;;;;;;;;;;;28.15;40.39;100861.67;1695035;82;20239;-78
2021/05/26 11:36:06;;;;;;;;;;;;;;;28.10;40.40;100863.84;1687964;82;20209;-80
2021/05/26 11:38:36;;;;;;;;;;;;;;;28.06;40.44;100862.16;1674648;82;20242;-81
2021/05/26 11:41:18;;;;;;;;;;;;;;;28.04;40.61;100862.99;1690590;82;20238;-79
2021/05/26 11:46:46;;;;;;;;;;;;;;;27.92;40.51;100849.12;1675477;82;20199;-80
2021/05/26 11:49:15;;;;;;;;;;;;;;;27.88;40.68;100846.06;1668549;82;20249;-79
2021/05/26 11:51:45;;;;;;;;;;;;;;;27.89;40.80;100848.27;1685390;82;20289;-80
2021/05/26 11:54:11;;;;;;;;;;;;;;;27.85;38.89;100858.17;1688638;82;20226;-80
2021/05/26 11:56:38;;;;;;;;;;;;;;;27.81;38.24;100854.55;1680228;82;20602;-79
2021/05/26 11:59:10;;;;;;;;;;;;;;;27.83;38.88;100849.33;1695939;81;20164;-79
2021/05/26 12:01:36;;;;;;;;;;;;;;;27.82;39.42;100854.01;1689646;82;20191;-79
2021/05/26 12:04:23;;;;;;;;;;;;;;;27.78;40.48;100850.95;1745774;80;20231;-80
2021/05/26 12:06:45;;;;;;;;;;;;;;;27.73;40.94;100844.03;1740821;80;20305;-78
2021/05/26 12:09:31;;;;;;;;;;;;;;;27.72;41.21;100852.56;1739037;80;20206;-80
2021/05/26 12:12:02;;;;;;;;;;;;;;;27.73;41.31;100843.20;1742708;80;20219;-81
2021/05/26 12:14:29;;;;;;;;;;;;;;;27.72;41.48;100836.87;1737920;80;20299;-78
2021/05/26 12:17:10;;;;;;;;;;;;;;;27.70;41.62;100836.25;1739367;80;20166;-79
2021/05/26 12:19:36;;;;;;;;;;;;;;;27.68;41.10;100828.82;1738935;80;20197;-80
2021/05/26 12:22:29;;;;;;;;;;;;;;;;;;;;;
2021/05/26 12:25:00;;;;;;;;;;;;;;;27.65;40.96;100830.71;1725916;80;20170;-80
2021/05/26 12:27:42;;;;;;;;;;;;;;;27.65;40.83;100827.95;1731408;80;20200;-79
2021/05/26 12:30:25;;;;;;;;;;;;;;;27.63;39.50;100823.28;1733889;80;20244;-79
2021/05/26 12:32:53;;;;;;;;;;;;;;;27.65;37.73;100825.20;1735291;80;20178;-79
2021/05/26 12:35:26;;;;;;;;;;;;;;;27.67;37.51;100823.04;1738400;80;20231;-81
2021/05/26 12:37:54;;;;;;;;;;;;;;;27.70;35.72;100821.11;1713573;82;20921;-80
2021/05/26 12:40:29;;;;;;;;;;;;;;;27.73;35.08;100816.50;1737994;82;20175;-79
2021/05/26 12:42:59;;;;;;;;;;;;;;;27.80;35.03;100815.74;1740202;80;20165;-81
2021/05/26 12:45:29;;;;;;;;;;;;;;;27.87;34.94;100811.38;1748325;80;20719;-79
2021/05/26 12:47:59;;;;;;;;;;;;;;;27.94;34.75;100813.91;1712190;80;20258;-79
2021/05/26 12:50:28;;;;;;;;;;;;;;;27.98;34.57;100814.50;1743575;80;20387;-80
2021/05/26 12:53:12;;;;;;;;;;;;;;;28.06;34.48;100814.52;1728442;80;20334;-80
2021/05/26 12:55:47;;;;;;;;;;;;;;;28.11;34.09;100809.04;1737304;80;20274;-80
2021/05/26 12:58:17;;;;;;;;;;;;;;;28.17;34.06;100809.92;1690616;82;20214;-80
2021/05/26 13:00:43;;;;;;;;;;;;;;;28.18;33.60;100806.07;1712599;82;20215;-82
2021/05/26 13:03:19;;;;;;;;;;;;;;;28.20;33.59;100806.06;1735278;80;20829;-82
2021/05/26 13:05:48;;;;;;;;;;;;;;;28.22;33.50;100801.69;1711213;82;20278;-79
2021/05/26 13:08:18;;;;;;;;;;;;;;;28.24;33.75;100802.23;1736993;80;20238;-78
2021/05/26 13:10:56;;;;;;;;;;;;;;;28.26;33.74;100802.27;1747119;80;20710;-78